sensor_id;sensor_type;location;lat;lon;timestamp;pressure;altitude;pressure_sealevel;temperature;humidity
9009;BME280;62813;51.424;6.762;2023-01-30T00:01:17;101681.47;;;2.96;90.36
9009;BME280;62813;51.424;6.762;2023-01-30T00:03:44;101668.66;;;2.97;90.85
9009;BME280;62813;51.424;6.762;2023-01-30T00:06:11;101679.81;;;3.04;90.62
9009;BME280;62813;51.424;6.762;2023-01-30T00:08:37;101666.94;;;3.02;90.93
9009;BME280;62813;51.424;6.762;2023-01-30T00:11:05;101652.44;;;3.06;91.13
9009;BME280;62813;51.424;6.762;2023-01-30T00:13:32;101643.91;;;3.07;91.07
9009;BME280;62813;51.424;6.762;2023-01-30T00:15:59;101626.78;;;3.07;91.15
9009;BME280;62813;51.424;6.762;2023-01-30T00:18:26;101638.75;;;3.07;91.28
9009;BME280;62813;51.424;6.762;2023-01-30T00:21:00;101645.63;;;3.11;91.55
9009;BME280;62813;51.424;6.762;2023-01-30T00:23:28;101635.38;;;3.14;91.34
9009;BME280;62813;51.424;6.762;2023-01-30T00:25:55;101631.97;;;3.18;91.41
9009;BME280;62813;51.424;6.762;2023-01-30T00:28:22;101620.00;;;3.23;91.57
9009;BME280;62813;51.424;6.762;2023-01-30T00:30:53;101623.44;;;3.22;91.42
9009;BME280;62813;51.424;6.762;2023-01-30T00:33:21;101618.31;;;3.25;91.41
9009;BME280;62813;51.424;6.762;2023-01-30T00:35:49;101607.19;;;3.23;91.51
9009;BME280;62813;51.424;6.762;2023-01-30T00:38:17;101602.06;;;3.29;91.25
9009;BME280;62813;51.424;6.762;2023-01-30T00:40:44;101584.13;;;3.31;91.49
9009;BME280;62813;51.424;6.762;2023-01-30T00:43:13;101582.41;;;3.31;91.62
9009;BME280;62813;51.424;6.762;2023-01-30T00:45:59;101577.28;;;3.31;91.86
9009;BME280;62813;51.424;6.762;2023-01-30T00:48:44;101586.69;;;3.31;91.61
9009;BME280;62813;51.424;6.762;2023-01-30T00:51:11;101579.00;;;3.32;91.88
9009;BME280;62813;51.424;6.762;2023-01-30T00:53:38;101578.13;;;3.36;91.93
9009;BME280;62813;51.424;6.762;2023-01-30T00:56:05;101581.56;;;3.35;91.76
9009;BME280;62813;51.424;6.762;2023-01-30T00:58:31;101571.28;;;3.34;92.29
9009;BME280;62813;51.424;6.762;2023-01-30T01:00:59;101562.75;;;3.33;92.20
9009;BME280;62813;51.424;6.762;2023-01-30T01:03:26;101573.88;;;3.32;92.37
9009;BME280;62813;51.424;6.762;2023-01-30T01:05:52;101562.75;;;3.32;92.10
9009;BME280;62813;51.424;6.762;2023-01-30T01:08:19;101559.34;;;3.40;91.95
9009;BME280;62813;51.424;6.762;2023-01-30T01:10:48;101558.50;;;3.38;92.61
9009;BME280;62813;51.424;6.762;2023-01-30T01:13:14;101547.34;;;3.42;92.52
9009;BME280;62813;51.424;6.762;2023-01-30T01:15:41;101552.50;;;3.47;92.87
9009;BME280;62813;51.424;6.762;2023-01-30T01:18:08;101542.25;;;3.47;92.99
9009;BME280;62813;51.424;6.762;2023-01-30T01:20:34;101540.50;;;3.49;93.50
9009;BME280;62813;51.424;6.762;2023-01-30T01:23:01;101531.09;;;3.51;93.34
9009;BME280;62813;51.424;6.762;2023-01-30T01:25:27;101552.47;;;3.52;93.14
9009;BME280;62813;51.424;6.762;2023-01-30T01:27:54;101544.81;;;3.55;93.03
9009;BME280;62813;51.424;6.762;2023-01-30T01:30:21;101543.09;;;3.54;93.34
9009;BME280;62813;51.424;6.762;2023-01-30T01:32:48;101537.97;;;3.54;93.11
9009;BME280;62813;51.424;6.762;2023-01-30T01:35:14;101540.53;;;3.55;93.29
9009;BME280;62813;51.424;6.762;2023-01-30T01:37:41;101545.66;;;3.61;92.98
9009;BME280;62813;51.424;6.762;2023-01-30T01:40:14;101536.25;;;3.62;93.26
9009;BME280;62813;51.424;6.762;2023-01-30T01:43:02;101541.38;;;3.65;93.20
9009;BME280;62813;51.424;6.762;2023-01-30T01:45:29;101536.25;;;3.66;93.29
9009;BME280;62813;51.424;6.762;2023-01-30T01:48:13;101525.13;;;3.64;93.37
9009;BME280;62813;51.424;6.762;2023-01-30T01:50:46;101525.13;;;3.69;93.59
9009;BME280;62813;51.424;6.762;2023-01-30T01:53:16;101502.00;;;3.72;93.42
9009;BME280;62813;51.424;6.762;2023-01-30T01:55:45;101516.53;;;3.73;93.24
9009;BME280;62813;51.424;6.762;2023-01-30T01:58:18;101499.47;;;3.73;93.32
9009;BME280;62813;51.424;6.762;2023-01-30T02:00:46;101502.03;;;3.75;93.84
9009;BME280;62813;51.424;6.762;2023-01-30T02:03:21;101504.59;;;3.75;93.30
9009;BME280;62813;51.424;6.762;2023-01-30T02:05:51;101492.59;;;3.79;93.35
9009;BME280;62813;51.424;6.762;2023-01-30T02:08:24;101490.88;;;3.81;93.16
9009;BME280;62813;51.424;6.762;2023-01-30T02:10:57;101489.16;;;3.86;93.35
9009;BME280;62813;51.424;6.762;2023-01-30T02:13:26;101482.31;;;3.88;93.14
9009;BME280;62813;51.424;6.762;2023-01-30T02:15:56;101484.03;;;3.89;93.14
9009;BME280;62813;51.424;6.762;2023-01-30T02:18:23;101472.00;;;3.92;93.18
9009;BME280;62813;51.424;6.762;2023-01-30T02:26:20;101431.75;;;3.99;93.38
9009;BME280;62813;51.424;6.762;2023-01-30T02:34:56;101424.91;;;4.06;93.56
9009;BME280;62813;51.424;6.762;2023-01-30T02:37:46;101412.06;;;4.04;93.51
9009;BME280;62813;51.424;6.762;2023-01-30T02:45:25;101406.03;;;4.08;93.76
9009;BME280;62813;51.424;6.762;2023-01-30T02:48:04;101412.88;;;4.08;94.11
9009;BME280;62813;51.424;6.762;2023-01-30T02:50:45;101417.16;;;4.13;93.99
9009;BME280;62813;51.424;6.762;2023-01-30T02:53:13;101417.16;;;4.15;93.86
9009;BME280;62813;51.424;6.762;2023-01-30T02:55:41;101421.44;;;4.13;93.87
9009;BME280;62813;51.424;6.762;2023-01-30T02:58:08;101412.03;;;4.13;94.01
9009;BME280;62813;51.424;6.762;2023-01-30T03:09:01;101395.75;;;4.16;94.53
9009;BME280;62813;51.424;6.762;2023-01-30T03:11:59;101400.00;;;4.20;94.48
9009;BME280;62813;51.424;6.762;2023-01-30T03:14:47;101393.16;;;4.23;94.24
9009;BME280;62813;51.424;6.762;2023-01-30T03:17:16;101385.44;;;4.25;94.56
9009;BME280;62813;51.424;6.762;2023-01-30T03:19:43;101391.41;;;4.27;94.71
9009;BME280;62813;51.424;6.762;2023-01-30T03:22:10;101389.69;;;4.26;94.59
9009;BME280;62813;51.424;6.762;2023-01-30T03:24:37;101385.41;;;4.28;94.81
9009;BME280;62813;51.424;6.762;2023-01-30T03:27:11;101384.53;;;4.29;94.81
9009;BME280;62813;51.424;6.762;2023-01-30T03:29:38;101378.53;;;4.32;94.86
9009;BME280;62813;51.424;6.762;2023-01-30T03:32:05;101359.69;;;4.31;95.04
9009;BME280;62813;51.424;6.762;2023-01-30T03:34:32;101353.69;;;4.29;94.87
9009;BME280;62813;51.424;6.762;2023-01-30T03:36:59;101358.00;;;4.30;95.30
9009;BME280;62813;51.424;6.762;2023-01-30T03:39:25;101356.25;;;4.34;95.24
9009;BME280;62813;51.424;6.762;2023-01-30T03:41:52;101349.41;;;4.37;95.39
9009;BME280;62813;51.424;6.762;2023-01-30T03:44:19;101351.94;;;4.39;95.46
9009;BME280;62813;51.424;6.762;2023-01-30T03:46:46;101358.78;;;4.41;95.31
9009;BME280;62813;51.424;6.762;2023-01-30T03:49:12;101354.50;;;4.40;95.20
9009;BME280;62813;51.424;6.762;2023-01-30T03:51:39;101339.94;;;4.41;95.24
9009;BME280;62813;51.424;6.762;2023-01-30T03:54:06;101328.78;;;4.40;95.25
9009;BME280;62813;51.424;6.762;2023-01-30T03:56:32;101336.50;;;4.42;95.75
9009;BME280;62813;51.424;6.762;2023-01-30T03:58:58;101331.34;;;4.42;96.10
9009;BME280;62813;51.424;6.762;2023-01-30T04:01:25;101318.47;;;4.43;96.19
9009;BME280;62813;51.424;6.762;2023-01-30T04:03:52;101321.06;;;4.45;96.73
9009;BME280;62813;51.424;6.762;2023-01-30T04:06:18;101326.19;;;4.43;96.50
9009;BME280;62813;51.424;6.762;2023-01-30T04:08:45;101323.63;;;4.46;96.66
9009;BME280;62813;51.424;6.762;2023-01-30T04:11:11;101333.00;;;4.49;97.04
9009;BME280;62813;51.424;6.762;2023-01-30T04:13:38;101322.75;;;4.49;96.81
9009;BME280;62813;51.424;6.762;2023-01-30T04:16:21;101325.34;;;4.46;97.58
9009;BME280;62813;51.424;6.762;2023-01-30T04:18:48;101333.00;;;4.52;97.55
9009;BME280;62813;51.424;6.762;2023-01-30T04:21:15;101319.31;;;4.48;97.68
9009;BME280;62813;51.424;6.762;2023-01-30T04:23:42;101321.03;;;4.51;97.65
9009;BME280;62813;51.424;6.762;2023-01-30T04:26:09;101326.16;;;4.51;98.01
9009;BME280;62813;51.424;6.762;2023-01-30T04:28:36;101318.47;;;4.51;98.33
9009;BME280;62813;51.424;6.762;2023-01-30T04:31:03;101315.00;;;4.53;98.67
9009;BME280;62813;51.424;6.762;2023-01-30T04:33:29;101318.44;;;4.52;98.67
9009;BME280;62813;51.424;6.762;2023-01-30T04:35:58;101319.28;;;4.54;98.84
9009;BME280;62813;51.424;6.762;2023-01-30T04:38:25;101314.09;;;4.57;98.92
9009;BME280;62813;51.424;6.762;2023-01-30T04:40:53;101309.81;;;4.56;99.19
9009;BME280;62813;51.424;6.762;2023-01-30T04:43:22;101304.72;;;4.53;99.15
9009;BME280;62813;51.424;6.762;2023-01-30T04:45:50;101309.00;;;4.54;99.51
9009;BME280;62813;51.424;6.762;2023-01-30T04:48:18;101306.38;;;4.57;99.46
9009;BME280;62813;51.424;6.762;2023-01-30T04:50:49;101302.13;;;4.58;99.35
9009;BME280;62813;51.424;6.762;2023-01-30T04:53:16;101299.53;;;4.60;99.58
9009;BME280;62813;51.424;6.762;2023-01-30T04:55:43;101308.09;;;4.62;99.76
9009;BME280;62813;51.424;6.762;2023-01-30T04:58:10;101312.38;;;4.61;100.00
9009;BME280;62813;51.424;6.762;2023-01-30T05:00:37;101294.34;;;4.63;100.00
9009;BME280;62813;51.424;6.762;2023-01-30T05:03:04;101298.66;;;4.62;100.00
9009;BME280;62813;51.424;6.762;2023-01-30T05:05:32;101296.94;;;4.63;100.00
9009;BME280;62813;51.424;6.762;2023-01-30T05:07:59;101294.31;;;4.69;100.00
9009;BME280;62813;51.424;6.762;2023-01-30T05:10:25;101298.59;;;4.68;100.00
9009;BME280;62813;51.424;6.762;2023-01-30T05:12:52;101308.00;;;4.71;100.00
9009;BME280;62813;51.424;6.762;2023-01-30T05:15:19;101301.16;;;4.70;100.00
9009;BME280;62813;51.424;6.762;2023-01-30T05:17:46;101290.88;;;4.73;100.00
9009;BME280;62813;51.424;6.762;2023-01-30T05:20:13;101304.56;;;4.75;100.00
9009;BME280;62813;51.424;6.762;2023-01-30T05:22:39;101297.66;;;4.77;100.00
9009;BME280;62813;51.424;6.762;2023-01-30T05:25:06;101291.66;;;4.78;100.00
9009;BME280;62813;51.424;6.762;2023-01-30T05:27:33;101274.50;;;4.78;100.00
9009;BME280;62813;51.424;6.762;2023-01-30T05:29:59;101279.63;;;4.83;100.00
9009;BME280;62813;51.424;6.762;2023-01-30T05:32:26;101290.78;;;4.82;100.00
9009;BME280;62813;51.424;6.762;2023-01-30T05:34:55;101276.22;;;4.81;100.00
9009;BME280;62813;51.424;6.762;2023-01-30T05:37:23;101276.19;;;4.82;100.00
9009;BME280;62813;51.424;6.762;2023-01-30T05:39:50;101283.03;;;4.87;100.00
9009;BME280;62813;51.424;6.762;2023-01-30T05:42:17;101271.88;;;4.86;100.00
9009;BME280;62813;51.424;6.762;2023-01-30T05:44:43;101285.59;;;4.85;100.00
9009;BME280;62813;51.424;6.762;2023-01-30T05:47:10;101283.88;;;4.84;100.00
9009;BME280;62813;51.424;6.762;2023-01-30T05:49:36;101277.88;;;4.85;100.00
9009;BME280;62813;51.424;6.762;2023-01-30T05:52:03;101288.16;;;4.88;100.00
9009;BME280;62813;51.424;6.762;2023-01-30T05:54:30;101282.94;;;4.93;100.00
9009;BME280;62813;51.424;6.762;2023-01-30T05:56:56;101273.53;;;4.95;100.00
9009;BME280;62813;51.424;6.762;2023-01-30T05:59:22;101292.38;;;4.95;100.00
9009;BME280;62813;51.424;6.762;2023-01-30T06:01:49;101281.25;;;4.95;100.00
9009;BME280;62813;51.424;6.762;2023-01-30T06:04:16;101287.22;;;4.97;100.00
9009;BME280;62813;51.424;6.762;2023-01-30T06:06:43;101300.06;;;4.98;100.00
9009;BME280;62813;51.424;6.762;2023-01-30T06:09:10;101296.56;;;5.04;100.00
9009;BME280;62813;51.424;6.762;2023-01-30T06:11:37;101300.81;;;5.06;100.00
9009;BME280;62813;51.424;6.762;2023-01-30T06:14:04;101301.72;;;5.07;100.00
9009;BME280;62813;51.424;6.762;2023-01-30T06:16:31;101299.13;;;5.05;100.00
9009;BME280;62813;51.424;6.762;2023-01-30T06:18:57;101305.97;;;5.06;100.00
9009;BME280;62813;51.424;6.762;2023-01-30T06:21:24;101306.81;;;5.10;100.00
9009;BME280;62813;51.424;6.762;2023-01-30T06:23:50;101297.41;;;5.07;100.00
9009;BME280;62813;51.424;6.762;2023-01-30T06:26:17;101292.16;;;5.17;100.00
9009;BME280;62813;51.424;6.762;2023-01-30T06:28:43;101304.22;;;5.15;100.00
9009;BME280;62813;51.424;6.762;2023-01-30T06:31:10;101299.88;;;5.17;100.00
9009;BME280;62813;51.424;6.762;2023-01-30T06:33:37;101300.72;;;5.19;100.00
9009;BME280;62813;51.424;6.762;2023-01-30T06:36:04;101292.16;;;5.18;100.00
9009;BME280;62813;51.424;6.762;2023-01-30T06:38:30;101304.97;;;5.23;100.00
9009;BME280;62813;51.424;6.762;2023-01-30T06:40:57;101307.56;;;5.20;100.00
9009;BME280;62813;51.424;6.762;2023-01-30T06:43:23;101312.72;;;5.20;100.00
9009;BME280;62813;51.424;6.762;2023-01-30T06:45:50;101319.50;;;5.27;100.00
9009;BME280;62813;51.424;6.762;2023-01-30T06:48:16;101326.38;;;5.29;100.00
9009;BME280;62813;51.424;6.762;2023-01-30T06:50:45;101331.50;;;5.31;100.00
9009;BME280;62813;51.424;6.762;2023-01-30T06:53:13;101339.22;;;5.29;100.00
9009;BME280;62813;51.424;6.762;2023-01-30T06:55:39;101336.63;;;5.31;100.00
9009;BME280;62813;51.424;6.762;2023-01-30T06:58:11;101340.91;;;5.32;100.00
9009;BME280;62813;51.424;6.762;2023-01-30T07:00:39;101334.88;;;5.33;100.00
9009;BME280;62813;51.424;6.762;2023-01-30T07:03:10;101322.00;;;5.34;100.00
9009;BME280;62813;51.424;6.762;2023-01-30T07:05:39;101332.31;;;5.33;100.00
9009;BME280;62813;51.424;6.762;2023-01-30T07:08:06;101338.28;;;5.35;100.00
9009;BME280;62813;51.424;6.762;2023-01-30T07:10:33;101337.41;;;5.39;100.00
9009;BME280;62813;51.424;6.762;2023-01-30T07:13:02;101321.13;;;5.37;100.00
9009;BME280;62813;51.424;6.762;2023-01-30T07:15:29;101327.16;;;5.34;100.00
9009;BME280;62813;51.424;6.762;2023-01-30T07:17:55;101327.97;;;5.38;100.00
9009;BME280;62813;51.424;6.762;2023-01-30T07:20:22;101315.94;;;5.43;100.00
9009;BME280;62813;51.424;6.762;2023-01-30T07:22:50;101324.34;;;5.57;100.00
9009;BME280;62813;51.424;6.762;2023-01-30T07:25:18;101334.59;;;5.60;100.00
9009;BME280;62813;51.424;6.762;2023-01-30T07:27:49;101326.78;;;5.68;100.00
9009;BME280;62813;51.424;6.762;2023-01-30T07:30:16;101325.88;;;5.74;100.00
9009;BME280;62813;51.424;6.762;2023-01-30T07:32:43;101327.50;;;5.81;100.00
9009;BME280;62813;51.424;6.762;2023-01-30T07:35:09;101351.56;;;5.80;99.34
9009;BME280;62813;51.424;6.762;2023-01-30T07:37:36;101353.22;;;5.84;99.18
9009;BME280;62813;51.424;6.762;2023-01-30T07:40:02;101347.97;;;5.93;99.42
9009;BME280;62813;51.424;6.762;2023-01-30T07:42:29;101353.06;;;5.99;99.08
9009;BME280;62813;51.424;6.762;2023-01-30T07:44:55;101359.94;;;5.99;98.49
9009;BME280;62813;51.424;6.762;2023-01-30T07:47:22;101368.53;;;5.96;97.83
9009;BME280;62813;51.424;6.762;2023-01-30T07:49:49;101358.19;;;5.98;98.39
9009;BME280;62813;51.424;6.762;2023-01-30T07:52:16;101360.78;;;5.98;98.30
9009;BME280;62813;51.424;6.762;2023-01-30T07:54:42;101368.50;;;5.99;98.33
9009;BME280;62813;51.424;6.762;2023-01-30T07:57:09;101369.38;;;6.00;98.40
9009;BME280;62813;51.424;6.762;2023-01-30T07:59:35;101373.66;;;5.99;97.56
9009;BME280;62813;51.424;6.762;2023-01-30T08:02:02;101369.41;;;5.95;97.52
9009;BME280;62813;51.424;6.762;2023-01-30T08:04:28;101365.97;;;5.94;97.70
9009;BME280;62813;51.424;6.762;2023-01-30T08:06:55;101354.84;;;5.92;97.36
9009;BME280;62813;51.424;6.762;2023-01-30T08:09:21;101368.47;;;6.02;97.70
9009;BME280;62813;51.424;6.762;2023-01-30T08:11:48;101367.56;;;6.05;96.07
9009;BME280;62813;51.424;6.762;2023-01-30T08:14:15;101382.09;;;6.13;96.10
9009;BME280;62813;51.424;6.762;2023-01-30T08:16:41;101376.81;;;6.22;96.03
9009;BME280;62813;51.424;6.762;2023-01-30T08:19:08;101379.34;;;6.27;94.75
9009;BME280;62813;51.424;6.762;2023-01-30T08:21:35;101375.00;;;6.29;94.47
9009;BME280;62813;51.424;6.762;2023-01-30T08:24:01;101370.72;;;6.28;94.15
9009;BME280;62813;51.424;6.762;2023-01-30T08:26:28;101382.75;;;6.26;93.68
9009;BME280;62813;51.424;6.762;2023-01-30T08:28:54;101373.34;;;6.24;93.60
9009;BME280;62813;51.424;6.762;2023-01-30T08:31:21;101374.22;;;6.22;93.41
9009;BME280;62813;51.424;6.762;2023-01-30T08:33:48;101388.00;;;6.20;92.68
9009;BME280;62813;51.424;6.762;2023-01-30T08:36:14;101387.13;;;6.22;92.20
9009;BME280;62813;51.424;6.762;2023-01-30T08:38:41;101395.72;;;6.21;91.75
9009;BME280;62813;51.424;6.762;2023-01-30T08:41:07;101401.84;;;6.13;nan
9009;BME280;62813;51.424;6.762;2023-01-30T08:43:34;101397.63;;;6.07;90.99
9009;BME280;62813;51.424;6.762;2023-01-30T08:46:01;101401.09;;;6.03;90.99
9009;BME280;62813;51.424;6.762;2023-01-30T08:48:28;101419.16;;;6.02;91.29
9009;BME280;62813;51.424;6.762;2023-01-30T08:51:05;101424.34;;;5.97;91.09
9009;BME280;62813;51.424;6.762;2023-01-30T08:53:32;101433.78;;;5.98;91.07
9009;BME280;62813;51.424;6.762;2023-01-30T08:55:58;101442.38;;;6.00;90.73
9009;BME280;62813;51.424;6.762;2023-01-30T08:58:25;101426.03;;;5.98;90.67
9009;BME280;62813;51.424;6.762;2023-01-30T09:00:51;101416.63;;;5.97;90.43
9009;BME280;62813;51.424;6.762;2023-01-30T09:03:18;101409.75;;;5.99;90.53
9009;BME280;62813;51.424;6.762;2023-01-30T09:05:45;101398.59;;;5.99;90.65
9009;BME280;62813;51.424;6.762;2023-01-30T09:08:12;101384.81;;;6.01;90.24
9009;BME280;62813;51.424;6.762;2023-01-30T09:10:38;101405.41;;;6.01;89.47
9009;BME280;62813;51.424;6.762;2023-01-30T09:13:07;101401.09;;;6.03;89.37
9009;BME280;62813;51.424;6.762;2023-01-30T09:15:34;101420.91;;;6.00;89.12
9009;BME280;62813;51.424;6.762;2023-01-30T09:18:00;101417.44;;;6.02;88.62
9009;BME280;62813;51.424;6.762;2023-01-30T09:20:27;101422.59;;;6.02;88.69
9009;BME280;62813;51.424;6.762;2023-01-30T09:22:53;101428.63;;;5.98;88.94
9009;BME280;62813;51.424;6.762;2023-01-30T09:25:20;101431.22;;;6.00;88.61
9009;BME280;62813;51.424;6.762;2023-01-30T09:27:48;101433.78;;;5.98;87.92
9009;BME280;62813;51.424;6.762;2023-01-30T09:30:15;101432.06;;;6.00;87.25
9009;BME280;62813;51.424;6.762;2023-01-30T09:32:43;101437.16;;;6.03;86.90
9009;BME280;62813;51.424;6.762;2023-01-30T09:35:09;101444.88;;;6.06;86.05
9009;BME280;62813;51.424;6.762;2023-01-30T09:37:36;101445.66;;;6.11;86.42
9009;BME280;62813;51.424;6.762;2023-01-30T09:40:03;101445.59;;;6.17;85.11
9009;BME280;62813;51.424;6.762;2023-01-30T09:42:44;101446.47;;;6.16;84.29
9009;BME280;62813;51.424;6.762;2023-01-30T09:48:14;101445.56;;;6.20;82.48
9009;BME280;62813;51.424;6.762;2023-01-30T09:56:20;101441.22;;;6.24;81.46
9009;BME280;62813;51.424;6.762;2023-01-30T09:58:51;101446.34;;;6.27;79.86
9009;BME280;62813;51.424;6.762;2023-01-30T10:12:32;101481.63;;;6.24;78.74
9009;BME280;62813;51.424;6.762;2023-01-30T10:15:30;101468.69;;;6.27;78.29
9009;BME280;62813;51.424;6.762;2023-01-30T10:18:12;101485.84;;;6.31;77.71
9009;BME280;62813;51.424;6.762;2023-01-30T10:26:18;101487.59;;;6.29;77.37
9009;BME280;62813;51.424;6.762;2023-01-30T10:31:40;101476.31;;;6.36;77.05
9009;BME280;62813;51.424;6.762;2023-01-30T10:34:14;101477.19;;;6.35;77.09
9009;BME280;62813;51.424;6.762;2023-01-30T10:39:36;101479.84;;;6.29;75.68
9009;BME280;62813;51.424;6.762;2023-01-30T10:42:25;101473.81;;;6.30;75.80
9009;BME280;62813;51.424;6.762;2023-01-30T10:44:59;101470.34;;;6.32;75.70
9009;BME280;62813;51.424;6.762;2023-01-30T10:50:24;101478.97;;;6.30;75.89
9009;BME280;62813;51.424;6.762;2023-01-30T10:55:34;101476.34;;;6.33;75.85
9009;BME280;62813;51.424;6.762;2023-01-30T11:03:52;101484.78;;;6.48;75.59
9009;BME280;62813;51.424;6.762;2023-01-30T11:06:25;101477.88;;;6.49;75.54
9009;BME280;62813;51.424;6.762;2023-01-30T11:08:54;101488.06;;;6.58;74.47
9009;BME280;62813;51.424;6.762;2023-01-30T11:11:32;101476.09;;;6.56;74.76
9009;BME280;62813;51.424;6.762;2023-01-30T11:14:08;101477.81;;;6.55;73.77
9009;BME280;62813;51.424;6.762;2023-01-30T11:16:47;101475.22;;;6.54;73.82
9009;BME280;62813;51.424;6.762;2023-01-30T11:19:15;101472.63;;;6.57;74.40
9009;BME280;62813;51.424;6.762;2023-01-30T11:21:49;101476.03;;;6.63;73.56
9009;BME280;62813;51.424;6.762;2023-01-30T11:24:20;101480.25;;;6.67;74.13
9009;BME280;62813;51.424;6.762;2023-01-30T11:26:48;101482.78;;;6.69;73.98
9009;BME280;62813;51.424;6.762;2023-01-30T11:31:53;101492.25;;;6.71;73.18
9009;BME280;62813;51.424;6.762;2023-01-30T11:34:22;101496.47;;;6.75;73.27
9009;BME280;62813;51.424;6.762;2023-01-30T11:36:49;101491.38;;;6.72;72.71
9009;BME280;62813;51.424;6.762;2023-01-30T11:44:36;101482.66;;;6.80;72.57
9009;BME280;62813;51.424;6.762;2023-01-30T11:47:08;101487.81;;;6.81;72.21
9009;BME280;62813;51.424;6.762;2023-01-30T11:49:39;101486.09;;;6.80;72.39
9009;BME280;62813;51.424;6.762;2023-01-30T11:52:25;101487.78;;;6.83;72.21
9009;BME280;62813;51.424;6.762;2023-01-30T11:54:57;101490.34;;;6.86;72.33
9009;BME280;62813;51.424;6.762;2023-01-30T11:57:42;101474.78;;;6.90;72.66
9009;BME280;62813;51.424;6.762;2023-01-30T12:00:16;101482.44;;;6.98;70.68
9009;BME280;62813;51.424;6.762;2023-01-30T12:02:46;101488.47;;;6.95;71.81
9009;BME280;62813;51.424;6.762;2023-01-30T12:07:51;101479.72;;;7.04;70.67
9009;BME280;62813;51.424;6.762;2023-01-30T12:10:29;101487.53;;;7.01;71.59
9009;BME280;62813;51.424;6.762;2023-01-30T12:13:05;101487.38;;;7.10;71.50
9009;BME280;62813;51.424;6.762;2023-01-30T12:15:36;101487.41;;;7.09;71.01
9009;BME280;62813;51.424;6.762;2023-01-30T12:18:13;101484.78;;;7.13;71.61
9009;BME280;62813;51.424;6.762;2023-01-30T12:20:57;101486.41;;;7.17;71.19
9009;BME280;62813;51.424;6.762;2023-01-30T12:26:09;101489.72;;;7.27;69.48
9009;BME280;62813;51.424;6.762;2023-01-30T12:34:27;101479.69;;;7.07;70.64
9009;BME280;62813;51.424;6.762;2023-01-30T12:40:04;101501.03;;;7.20;70.66
9009;BME280;62813;51.424;6.762;2023-01-30T12:42:59;101504.47;;;7.20;70.25
9009;BME280;62813;51.424;6.762;2023-01-30T12:45:45;101515.53;;;7.28;70.36
9009;BME280;62813;51.424;6.762;2023-01-30T12:48:38;101500.84;;;7.30;68.55
9009;BME280;62813;51.424;6.762;2023-01-30T12:51:47;101496.63;;;7.26;69.37
9009;BME280;62813;51.424;6.762;2023-01-30T12:57:20;101500.13;;;7.22;70.34
9009;BME280;62813;51.424;6.762;2023-01-30T13:00:13;101511.34;;;7.18;69.51
9009;BME280;62813;51.424;6.762;2023-01-30T13:16:54;101529.47;;;7.17;68.46
9009;BME280;62813;51.424;6.762;2023-01-30T13:22:27;101531.06;;;7.24;68.43
9009;BME280;62813;51.424;6.762;2023-01-30T13:25:02;101526.75;;;7.24;69.05
9009;BME280;62813;51.424;6.762;2023-01-30T13:27:33;101521.59;;;7.24;68.75
9009;BME280;62813;51.424;6.762;2023-01-30T13:30:03;101543.88;;;7.31;68.61
9009;BME280;62813;51.424;6.762;2023-01-30T13:35:03;101533.53;;;7.33;69.33
9009;BME280;62813;51.424;6.762;2023-01-30T13:37:32;101541.28;;;7.33;68.44
9009;BME280;62813;51.424;6.762;2023-01-30T13:40:07;101550.66;;;7.39;67.93
9009;BME280;62813;51.424;6.762;2023-01-30T13:45:23;101560.97;;;7.39;67.93
9009;BME280;62813;51.424;6.762;2023-01-30T13:48:11;101557.59;;;7.35;68.12
9009;BME280;62813;51.424;6.762;2023-01-30T13:51:16;101567.09;;;7.31;68.63
9009;BME280;62813;51.424;6.762;2023-01-30T14:02:30;101577.56;;;7.25;71.09
9009;BME280;62813;51.424;6.762;2023-01-30T14:04:56;101585.31;;;7.25;71.02
9009;BME280;62813;51.424;6.762;2023-01-30T14:07:27;101589.53;;;7.29;70.36
9009;BME280;62813;51.424;6.762;2023-01-30T14:10:03;101591.28;;;7.27;70.11
9009;BME280;62813;51.424;6.762;2023-01-30T14:18:00;101594.81;;;7.22;69.57
9009;BME280;62813;51.424;6.762;2023-01-30T14:20:30;101611.97;;;7.24;70.12
9009;BME280;62813;51.424;6.762;2023-01-30T14:23:03;101603.31;;;7.28;68.98
9009;BME280;62813;51.424;6.762;2023-01-30T14:25:32;101602.53;;;7.23;69.50
9009;BME280;62813;51.424;6.762;2023-01-30T14:32:57;101618.00;;;7.26;68.73
9009;BME280;62813;51.424;6.762;2023-01-30T14:35:27;101624.03;;;7.25;68.93
9009;BME280;62813;51.424;6.762;2023-01-30T14:38:24;101624.06;;;7.22;69.17
9009;BME280;62813;51.424;6.762;2023-01-30T14:41:16;101618.97;;;7.16;69.28
9009;BME280;62813;51.424;6.762;2023-01-30T14:43:50;101624.13;;;7.19;68.98
9009;BME280;62813;51.424;6.762;2023-01-30T14:48:56;101629.38;;;7.12;69.89
9009;BME280;62813;51.424;6.762;2023-01-30T14:54:17;101653.41;;;7.15;69.43
9009;BME280;62813;51.424;6.762;2023-01-30T14:57:01;101652.53;;;7.16;69.49
9009;BME280;62813;51.424;6.762;2023-01-30T14:59:35;101666.25;;;7.21;69.50
9009;BME280;62813;51.424;6.762;2023-01-30T15:04:47;101676.63;;;7.17;69.89
9009;BME280;62813;51.424;6.762;2023-01-30T15:10:04;101686.16;;;7.10;70.70
9009;BME280;62813;51.424;6.762;2023-01-30T15:12:58;101690.44;;;7.11;70.43
9009;BME280;62813;51.424;6.762;2023-01-30T15:15:46;101698.28;;;7.05;70.48
9009;BME280;62813;51.424;6.762;2023-01-30T15:27:03;101717.41;;;6.86;71.49
9009;BME280;62813;51.424;6.762;2023-01-30T15:29:50;101720.81;;;6.89;71.38
9009;BME280;62813;51.424;6.762;2023-01-30T15:32:23;101731.22;;;6.83;71.59
9009;BME280;62813;51.424;6.762;2023-01-30T15:34:54;101732.97;;;6.78;71.74
9009;BME280;62813;51.424;6.762;2023-01-30T15:37:38;101736.41;;;6.79;71.67
9009;BME280;62813;51.424;6.762;2023-01-30T15:40:28;101728.66;;;6.79;72.14
9009;BME280;62813;51.424;6.762;2023-01-30T15:50:47;101750.13;;;6.84;72.90
9009;BME280;62813;51.424;6.762;2023-01-30T15:53:15;101749.25;;;6.85;72.36
9009;BME280;62813;51.424;6.762;2023-01-30T15:55:43;101757.00;;;6.82;72.86
9009;BME280;62813;51.424;6.762;2023-01-30T15:58:15;101754.47;;;6.80;72.82
9009;BME280;62813;51.424;6.762;2023-01-30T16:00:48;101765.69;;;6.78;73.30
9009;BME280;62813;51.424;6.762;2023-01-30T16:03:19;101768.25;;;6.78;73.24
9009;BME280;62813;51.424;6.762;2023-01-30T16:05:51;101770.84;;;6.74;73.55
9009;BME280;62813;51.424;6.762;2023-01-30T16:08:25;101770.00;;;6.72;73.63